Time;durP1;ratioP1;P1;durP2;ratioP2;P2;SDS_P1;SDS_P2;PMS_P1;PMS_P2;Temp;Humidity;BMP_temperature;BMP_pressure;BME280_temperature;BME280_humidity;BME280_pressure;Samples;Min_cycle;Max_cycle;Signal;HPM_P1;HPM_P2
2023/07/15 00:00:50;;;;;;;4.50;1.20;;;25.30;49.20;;;;;;5030161;28;20683;-74
2023/07/15 00:03:18;;;;;;;3.00;1.57;;;25.20;49.20;;;;;;4999204;28;20648;-74
2023/07/15 00:05:45;;;;;;;3.17;1.30;;;25.20;49.60;;;;;;5030258;28;20573;-74
2023/07/15 00:08:10;;;;;;;2.23;1.40;;;25.10;49.50;;;;;;5011840;28;20628;-74
2023/07/15 00:10:39;;;;;;;2.23;1.10;;;25.10;49.40;;;;;;5012942;28;20638;-74
2023/07/15 00:13:13;;;;;;;1.80;1.00;;;25.10;49.70;;;;;;5033418;28;20192;-74
2023/07/15 00:15:42;;;;;;;2.37;1.00;;;25.10;49.80;;;;;;5016701;28;20596;-74
2023/07/15 00:18:09;;;;;;;2.60;1.30;;;25.00;49.70;;;;;;5015618;28;20690;-74
2023/07/15 00:20:35;;;;;;;3.17;1.40;;;25.00;49.60;;;;;;5034013;28;20596;-74
2023/07/15 00:23:05;;;;;;;3.10;1.10;;;25.00;49.60;;;;;;5033556;28;20569;-74
2023/07/15 00:25:32;;;;;;;3.93;1.00;;;25.00;49.90;;;;;;5016625;28;20949;-74
2023/07/15 00:27:58;;;;;;;2.47;1.30;;;24.90;49.70;;;;;;5033275;28;20944;-74
2023/07/15 00:30:23;;;;;;;2.50;1.47;;;24.90;50.10;;;;;;5033687;28;20579;-74
2023/07/15 00:32:51;;;;;;;2.83;1.30;;;24.90;50.00;;;;;;5015458;28;20205;-74
2023/07/15 00:35:28;;;;;;;2.67;1.10;;;24.80;50.10;;;;;;5033900;28;20598;-74
2023/07/15 00:37:58;;;;;;;2.33;1.00;;;24.80;50.20;;;;;;5023687;28;20643;-74
2023/07/15 00:40:25;;;;;;;1.80;0.97;;;24.80;50.30;;;;;;5024215;28;20642;-74
2023/07/15 00:43:30;;;;;;;2.57;1.20;;;24.80;50.30;;;;;;5015717;28;20703;-74
2023/07/15 00:46:18;;;;;;;3.83;1.20;;;24.80;50.50;;;;;;4999267;28;20603;-74
2023/07/15 00:49:11;;;;;;;2.57;1.07;;;24.70;50.80;;;;;;5033249;28;21173;-74
2023/07/15 00:51:40;;;;;;;2.20;0.90;;;24.70;50.60;;;;;;5015489;28;20618;-74
2023/07/15 00:54:07;;;;;;;2.20;1.10;;;24.70;50.40;;;;;;5033507;28;20568;-74
2023/07/15 00:56:35;;;;;;;5.53;1.07;;;24.70;50.40;;;;;;4998617;28;20639;-75
2023/07/15 00:59:04;;;;;;;2.47;1.60;;;24.70;50.70;;;;;;4998750;28;20600;-75
2023/07/15 01:01:30;;;;;;;1.60;0.87;;;24.60;50.40;;;;;;5032376;28;21025;-75
2023/07/15 01:03:56;;;;;;;5.50;1.20;;;24.60;50.60;;;;;;5015160;28;20641;-75
2023/07/15 01:06:23;;;;;;;2.00;1.20;;;24.60;50.60;;;;;;5032809;28;20679;-75
2023/07/15 01:08:49;;;;;;;2.20;1.00;;;24.60;50.90;;;;;;4998518;28;21657;-75
2023/07/15 01:11:15;;;;;;;2.60;1.10;;;24.60;50.80;;;;;;5032509;28;20611;-74
2023/07/15 01:13:41;;;;;;;3.93;1.20;;;24.60;50.90;;;;;;5033017;28;20197;-75
2023/07/15 01:16:07;;;;;;;2.57;1.00;;;24.50;50.80;;;;;;5032564;28;20223;-75
2023/07/15 01:18:32;;;;;;;2.00;1.07;;;24.50;51.00;;;;;;4999615;28;20297;-74
2023/07/15 01:20:59;;;;;;;3.20;1.40;;;24.50;51.00;;;;;;4998512;28;20604;-75
2023/07/15 01:23:29;;;;;;;2.53;1.20;;;24.50;51.20;;;;;;4997594;28;20213;-74
2023/07/15 01:25:55;;;;;;;3.07;1.30;;;24.40;51.20;;;;;;5015101;28;20568;-74
2023/07/15 01:28:22;;;;;;;4.10;1.17;;;24.40;51.60;;;;;;5014175;28;20619;-74
2023/07/15 01:30:48;;;;;;;2.30;1.20;;;24.40;51.70;;;;;;5014697;28;20699;-74
2023/07/15 01:33:18;;;;;;;3.27;1.10;;;24.30;51.50;;;;;;5031612;28;20735;-75
2023/07/15 01:35:48;;;;;;;3.50;1.03;;;24.30;51.50;;;;;;4998794;28;20669;-74
2023/07/15 01:38:15;;;;;;;3.93;1.03;;;24.30;51.70;;;;;;4997739;28;20595;-74
2023/07/15 01:40:42;;;;;;;2.83;1.23;;;24.30;51.60;;;;;;4998571;28;20588;-74
2023/07/15 01:43:09;;;;;;;2.87;1.70;;;24.30;51.70;;;;;;5014055;28;20584;-75
2023/07/15 01:45:36;;;;;;;5.53;1.00;;;24.30;51.70;;;;;;4998345;28;20631;-75
2023/07/15 01:48:01;;;;;;;3.83;1.10;;;24.30;51.90;;;;;;5013831;28;20589;-74
2023/07/15 01:50:27;;;;;;;2.07;0.90;;;24.30;51.80;;;;;;5014316;28;20956;-74
2023/07/15 01:52:54;;;;;;;2.23;1.13;;;24.30;51.80;;;;;;4999474;28;20220;-74
2023/07/15 01:55:19;;;;;;;2.23;0.90;;;24.20;51.90;;;;;;4998389;28;20632;-74
2023/07/15 01:57:45;;;;;;;4.00;1.60;;;24.20;52.20;;;;;;4997309;28;20686;-74
2023/07/15 02:00:16;;;;;;;2.70;1.53;;;24.20;52.20;;;;;;4997938;28;20201;-74
2023/07/15 02:02:42;;;;;;;3.67;1.30;;;24.20;52.30;;;;;;5013955;28;20208;-74
2023/07/15 02:05:08;;;;;;;1.90;0.90;;;24.20;52.20;;;;;;4997766;28;20643;-73
2023/07/15 02:07:34;;;;;;;3.70;0.90;;;24.10;52.20;;;;;;5031727;28;20572;-74
2023/07/15 02:09:59;;;;;;;2.00;0.90;;;24.20;52.30;;;;;;5014136;28;20177;-74
2023/07/15 02:12:25;;;;;;;2.63;1.10;;;24.20;52.30;;;;;;4997113;28;20201;-74
2023/07/15 02:14:51;;;;;;;2.10;1.00;;;24.20;52.30;;;;;;4981546;28;20177;-74
2023/07/15 02:17:20;;;;;;;3.30;1.13;;;24.20;52.50;;;;;;4997311;28;20209;-73
2023/07/15 02:19:47;;;;;;;3.10;0.93;;;24.10;52.30;;;;;;5013853;28;20182;-74
2023/07/15 02:22:13;;;;;;;2.50;1.23;;;24.10;52.40;;;;;;5013562;28;20623;-74
2023/07/15 02:24:38;;;;;;;1.93;1.20;;;24.10;52.40;;;;;;5013712;28;20800;-74
2023/07/15 02:27:06;;;;;;;2.77;0.93;;;24.10;52.60;;;;;;5031190;28;20182;-74
2023/07/15 02:29:31;;;;;;;2.43;0.80;;;24.10;52.70;;;;;;5016535;28;20655;-74
2023/07/15 02:31:57;;;;;;;2.33;1.20;;;24.10;52.60;;;;;;5015135;28;20233;-74
2023/07/15 02:34:23;;;;;;;1.90;0.87;;;24.10;52.60;;;;;;5013774;28;20212;-74
2023/07/15 02:36:49;;;;;;;2.07;0.90;;;24.20;52.80;;;;;;5013085;28;21156;-74
2023/07/15 02:39:16;;;;;;;2.47;1.10;;;24.20;52.70;;;;;;5014041;28;20724;-74
2023/07/15 02:41:44;;;;;;;2.33;1.00;;;24.20;52.80;;;;;;5013403;28;20248;-74
2023/07/15 02:44:10;;;;;;;1.70;0.90;;;24.20;52.70;;;;;;5013623;28;20588;-74
2023/07/15 02:46:35;;;;;;;2.77;0.97;;;24.20;52.70;;;;;;5012880;28;20673;-74
2023/07/15 02:49:02;;;;;;;2.63;1.00;;;24.10;52.60;;;;;;4997331;28;20591;-74
2023/07/15 02:51:28;;;;;;;2.43;1.20;;;24.10;52.80;;;;;;4980090;28;20232;-74
2023/07/15 02:53:54;;;;;;;2.07;0.90;;;24.10;52.80;;;;;;5013486;28;20599;-74
2023/07/15 02:56:20;;;;;;;2.17;1.00;;;24.00;52.70;;;;;;4996954;28;20698;-75
2023/07/15 02:58:46;;;;;;;1.83;0.80;;;24.00;52.80;;;;;;5012418;28;20588;-74
2023/07/15 03:01:11;;;;;;;2.77;0.90;;;24.00;52.90;;;;;;5013136;28;20204;-74
2023/07/15 03:03:37;;;;;;;4.63;1.20;;;24.00;53.10;;;;;;5013040;28;20174;-74
2023/07/15 03:06:03;;;;;;;1.80;1.10;;;24.00;53.00;;;;;;5000031;28;20182;-74
2023/07/15 03:08:31;;;;;;;2.97;1.10;;;24.00;53.10;;;;;;5012390;28;20584;-74
2023/07/15 03:10:57;;;;;;;2.30;1.10;;;24.00;53.20;;;;;;4996406;28;20288;-74
2023/07/15 03:13:26;;;;;;;1.60;0.80;;;23.90;53.20;;;;;;5012486;28;20667;-74
2023/07/15 03:15:55;;;;;;;1.80;0.83;;;23.90;53.30;;;;;;5013262;28;20201;-74
2023/07/15 03:18:23;;;;;;;1.50;0.80;;;23.90;53.30;;;;;;5012461;28;20683;-74
2023/07/15 03:20:49;;;;;;;3.10;0.97;;;23.90;53.40;;;;;;5012678;28;20584;-74
2023/07/15 03:23:14;;;;;;;3.40;1.17;;;23.90;53.40;;;;;;5028548;28;20601;-74
2023/07/15 03:25:40;;;;;;;2.90;0.90;;;23.90;53.40;;;;;;4989421;28;20580;-74
2023/07/15 03:28:06;;;;;;;2.00;1.10;;;23.90;53.40;;;;;;5029314;28;20193;-74
2023/07/15 03:30:31;;;;;;;1.73;0.90;;;23.90;53.40;;;;;;5004400;28;20185;-74
2023/07/15 03:32:58;;;;;;;1.83;0.90;;;23.90;53.40;;;;;;5012801;28;20209;-74
2023/07/15 03:35:24;;;;;;;2.03;1.00;;;23.90;53.60;;;;;;5030169;28;20177;-74
2023/07/15 03:37:50;;;;;;;2.77;0.90;;;23.90;53.70;;;;;;5029969;28;20630;-75
2023/07/15 03:40:16;;;;;;;2.80;1.40;;;23.80;53.70;;;;;;4996154;28;20580;-74
2023/07/15 03:42:42;;;;;;;2.00;0.90;;;23.80;53.80;;;;;;5015689;28;20207;-74
2023/07/15 03:45:09;;;;;;;2.20;0.90;;;23.80;53.80;;;;;;5011925;28;20577;-74
2023/07/15 03:47:35;;;;;;;2.90;1.23;;;23.70;54.00;;;;;;5030078;28;20529;-74
2023/07/15 03:50:05;;;;;;;4.33;1.13;;;23.70;53.90;;;;;;4996258;28;20679;-74
2023/07/15 03:52:31;;;;;;;2.27;0.90;;;23.70;54.20;;;;;;5029813;28;20596;-75
2023/07/15 03:54:58;;;;;;;2.47;1.10;;;23.70;54.10;;;;;;5029996;28;20591;-74
2023/07/15 03:57:24;;;;;;;4.20;1.00;;;23.70;54.20;;;;;;5012003;28;20723;-75
2023/07/15 03:59:50;;;;;;;1.70;0.93;;;23.70;54.20;;;;;;4996895;28;20887;-74
2023/07/15 04:02:17;;;;;;;5.60;1.00;;;23.70;54.30;;;;;;5029861;28;20624;-74
2023/07/15 04:04:43;;;;;;;3.57;1.10;;;23.80;54.50;;;;;;5030375;28;20205;-74
2023/07/15 04:07:10;;;;;;;1.80;0.90;;;23.80;54.50;;;;;;5011717;28;20592;-74
2023/07/15 04:09:36;;;;;;;1.73;0.80;;;23.80;54.50;;;;;;5012674;28;20573;-74
2023/07/15 04:12:02;;;;;;;2.07;0.90;;;23.90;54.60;;;;;;5011362;28;20616;-74
2023/07/15 04:14:28;;;;;;;2.50;1.00;;;23.90;54.70;;;;;;5012507;28;20647;-74
2023/07/15 04:16:54;;;;;;;1.73;0.90;;;23.90;54.80;;;;;;5011683;28;21019;-74
2023/07/15 04:19:20;;;;;;;2.97;1.13;;;23.90;54.90;;;;;;5015508;28;20584;-74
2023/07/15 04:21:45;;;;;;;3.10;1.50;;;23.90;55.00;;;;;;4995480;28;20181;-74
2023/07/15 04:24:11;;;;;;;2.97;1.00;;;24.00;55.00;;;;;;5012394;28;20173;-75
2023/07/15 04:26:37;;;;;;;2.93;1.10;;;24.00;55.00;;;;;;5029264;28;20269;-74
2023/07/15 04:29:03;;;;;;;1.80;0.97;;;24.10;55.20;;;;;;5030027;28;20177;-74
2023/07/15 04:31:28;;;;;;;5.53;0.90;;;24.10;55.10;;;;;;5029270;28;20240;-75
2023/07/15 04:33:55;;;;;;;3.60;1.20;;;24.20;55.30;;;;;;4995425;28;20576;-75
2023/07/15 04:36:21;;;;;;;2.23;1.07;;;24.30;55.30;;;;;;5029891;28;20227;-75
2023/07/15 04:38:48;;;;;;;1.80;0.90;;;24.50;55.60;;;;;;5011182;28;20580;-74
2023/07/15 04:41:13;;;;;;;2.70;1.10;;;24.70;55.70;;;;;;5011583;28;20655;-74
2023/07/15 04:43:51;;;;;;;2.47;1.00;;;24.70;55.40;;;;;;5015151;28;21033;-74
2023/07/15 04:46:17;;;;;;;2.10;1.00;;;24.80;55.20;;;;;;4996309;28;20208;-74
2023/07/15 04:48:43;;;;;;;2.23;0.90;;;24.80;55.10;;;;;;5011264;28;20644;-75
2023/07/15 04:51:09;;;;;;;3.77;0.87;;;24.90;55.00;;;;;;5011272;28;20201;-75
2023/07/15 04:53:43;;;;;;;2.57;2.37;;;24.90;55.10;;;;;;5011942;28;20600;-73
2023/07/15 04:56:09;;;;;;;1.63;0.83;;;25.10;55.30;;;;;;5034140;28;20616;-74
2023/07/15 04:58:35;;;;;;;2.13;0.90;;;25.20;55.30;;;;;;5014722;28;20715;-74
2023/07/15 05:01:01;;;;;;;2.30;0.83;;;25.40;55.90;;;;;;5015433;28;20727;-73
2023/07/15 05:03:26;;;;;;;2.47;0.83;;;25.60;55.40;;;;;;5015331;28;20591;-74
2023/07/15 05:05:52;;;;;;;2.97;0.97;;;25.60;55.10;;;;;;5015332;28;20178;-74
2023/07/15 05:08:19;;;;;;;2.90;1.00;;;25.70;54.90;;;;;;5015967;28;20520;-74
2023/07/15 05:10:48;;;;;;;2.97;0.90;;;25.90;54.90;;;;;;5014743;28;20278;-74
2023/07/15 05:13:15;;;;;;;2.97;0.97;;;26.10;54.90;;;;;;5015568;28;20580;-74
2023/07/15 05:15:41;;;;;;;2.80;0.87;;;26.20;54.70;;;;;;5015314;28;20580;-74
2023/07/15 05:18:08;;;;;;;3.20;1.00;;;26.30;54.50;;;;;;5014615;28;20632;-73
2023/07/15 05:20:34;;;;;;;2.03;1.00;;;26.40;54.40;;;;;;5014855;28;20575;-74
2023/07/15 05:23:04;;;;;;;2.73;0.97;;;26.40;54.90;;;;;;5032717;28;20627;-74
2023/07/15 05:25:30;;;;;;;6.03;1.00;;;26.40;54.10;;;;;;5014659;28;20627;-73
2023/07/15 05:27:57;;;;;;;2.20;0.83;;;26.50;54.00;;;;;;5014824;28;20684;-73
2023/07/15 05:30:23;;;;;;;2.13;1.23;;;26.40;53.80;;;;;;5032199;28;20584;-73
2023/07/15 05:32:49;;;;;;;2.07;1.17;;;26.40;53.80;;;;;;5035141;28;20596;-73
2023/07/15 05:35:14;;;;;;;2.63;0.90;;;26.50;53.80;;;;;;5033294;28;20580;-74
2023/07/15 05:37:40;;;;;;;2.43;0.80;;;26.50;53.80;;;;;;5031783;28;20241;-74
2023/07/15 05:40:09;;;;;;;2.23;0.80;;;26.50;53.80;;;;;;5014843;28;20630;-74
2023/07/15 05:42:42;;;;;;;2.07;0.90;;;26.50;53.70;;;;;;5014185;28;20663;-74
2023/07/15 05:45:10;;;;;;;3.73;1.00;;;26.50;53.70;;;;;;5032385;28;20595;-74
2023/07/15 05:47:36;;;;;;;2.17;0.90;;;26.50;53.60;;;;;;5013935;28;20589;-74
2023/07/15 05:50:02;;;;;;;3.23;0.90;;;26.60;53.70;;;;;;5014522;28;20592;-74
2023/07/15 05:52:28;;;;;;;2.73;0.97;;;26.60;53.80;;;;;;5013963;28;20202;-74
2023/07/15 05:54:54;;;;;;;2.10;0.93;;;26.80;54.30;;;;;;5032314;28;20929;-73
2023/07/15 05:57:20;;;;;;;2.27;0.80;;;27.10;54.60;;;;;;5031416;28;20623;-74
2023/07/15 05:59:46;;;;;;;2.00;1.10;;;27.30;54.50;;;;;;5014522;28;21024;-75
2023/07/15 06:02:11;;;;;;;2.37;1.00;;;27.90;54.90;;;;;;5004691;28;20201;-75
2023/07/15 06:04:37;;;;;;;1.80;0.90;;;28.60;55.10;;;;;;5006653;28;20648;-75
2023/07/15 06:07:03;;;;;;;2.53;1.17;;;29.40;54.60;;;;;;4996851;28;20177;-75
2023/07/15 06:09:28;;;;;;;1.93;0.90;;;30.10;54.30;;;;;;5010391;28;20572;-74
2023/07/15 06:11:54;;;;;;;2.90;0.80;;;30.90;53.90;;;;;;5014013;28;20229;-75
2023/07/15 06:14:20;;;;;;;2.20;0.80;;;31.50;52.90;;;;;;5014153;28;20301;-75
2023/07/15 06:16:46;;;;;;;2.30;1.10;;;32.00;51.80;;;;;;4997110;28;20254;-74
2023/07/15 06:19:11;;;;;;;1.53;0.80;;;32.50;51.70;;;;;;5031519;28;20172;-75
2023/07/15 06:21:37;;;;;;;1.80;1.00;;;33.00;51.20;;;;;;5028195;28;20227;-75
2023/07/15 06:24:03;;;;;;;2.23;0.80;;;33.30;50.20;;;;;;5027083;28;20178;-75
2023/07/15 06:26:29;;;;;;;2.00;0.80;;;33.40;49.30;;;;;;5018194;28;20274;-75
2023/07/15 06:28:55;;;;;;;2.00;0.90;;;33.70;49.30;;;;;;5023531;28;20607;-73
2023/07/15 06:31:20;;;;;;;2.10;0.93;;;33.80;48.60;;;;;;4987857;28;20215;-74
2023/07/15 06:33:48;;;;;;;2.83;1.40;;;33.90;48.10;;;;;;4978015;28;20183;-74
2023/07/15 06:36:14;;;;;;;2.93;0.83;;;33.90;47.90;;;;;;5011473;28;20628;-73
2023/07/15 06:38:40;;;;;;;1.60;0.70;;;33.90;47.40;;;;;;5011458;28;20601;-74
2023/07/15 06:41:06;;;;;;;2.07;1.13;;;33.70;47.10;;;;;;4993560;28;21218;-74
2023/07/15 06:43:31;;;;;;;2.90;1.00;;;33.60;47.00;;;;;;5011730;28;20915;-74
2023/07/15 06:45:57;;;;;;;3.07;0.80;;;33.50;46.50;;;;;;4996319;28;20181;-74
2023/07/15 06:48:23;;;;;;;1.90;0.70;;;33.10;46.20;;;;;;4993698;28;20179;-73
2023/07/15 06:50:48;;;;;;;3.10;0.90;;;32.80;46.20;;;;;;4993114;28;20200;-74
2023/07/15 06:53:14;;;;;;;2.77;0.90;;;32.50;46.20;;;;;;4961545;28;20543;-74
2023/07/15 06:55:40;;;;;;;2.50;0.80;;;32.20;46.20;;;;;;5011340;28;21182;-74
2023/07/15 06:58:06;;;;;;;2.77;0.90;;;32.00;46.40;;;;;;5012774;28;20292;-74
2023/07/15 07:00:33;;;;;;;2.27;0.80;;;31.80;46.60;;;;;;5029794;28;20269;-74
2023/07/15 07:02:59;;;;;;;3.10;1.00;;;31.60;46.70;;;;;;5021026;28;20670;-74
2023/07/15 07:05:26;;;;;;;3.90;1.40;;;31.50;46.80;;;;;;5031589;28;21116;-74
2023/07/15 07:07:52;;;;;;;3.67;0.80;;;31.30;46.90;;;;;;5015875;28;20584;-74
2023/07/15 07:10:17;;;;;;;1.90;0.80;;;31.10;46.90;;;;;;5023030;28;20675;-73
2023/07/15 07:12:43;;;;;;;3.60;1.20;;;30.90;47.00;;;;;;5003331;28;20704;-74
2023/07/15 07:15:09;;;;;;;2.73;0.90;;;30.70;47.00;;;;;;5016687;28;20216;-74
2023/07/15 07:17:35;;;;;;;4.33;0.90;;;30.40;47.20;;;;;;5012545;28;20628;-74
2023/07/15 07:20:03;;;;;;;3.00;1.47;;;30.20;47.40;;;;;;4995816;28;20616;-74
2023/07/15 07:22:29;;;;;;;2.67;0.93;;;30.10;47.60;;;;;;5032910;28;20197;-74
2023/07/15 07:24:54;;;;;;;4.70;1.00;;;29.80;47.70;;;;;;5013139;28;20667;-74
2023/07/15 07:27:20;;;;;;;2.33;0.90;;;29.60;47.90;;;;;;5012476;28;20647;-74
2023/07/15 07:29:46;;;;;;;3.83;1.03;;;29.40;48.10;;;;;;5012566;28;20182;-74
2023/07/15 07:32:11;;;;;;;1.80;0.80;;;29.20;48.70;;;;;;4996097;28;20681;-75
2023/07/15 07:34:37;;;;;;;4.40;0.87;;;29.00;49.00;;;;;;5012316;28;20174;-74
2023/07/15 07:37:03;;;;;;;5.70;1.00;;;28.80;49.30;;;;;;4996082;28;20237;-74
2023/07/15 07:39:29;;;;;;;2.83;1.00;;;28.50;50.30;;;;;;5012520;28;20165;-74
2023/07/15 07:41:55;;;;;;;1.70;0.90;;;28.40;50.10;;;;;;5009025;28;21193;-74
2023/07/15 07:44:21;;;;;;;1.90;0.80;;;28.10;50.40;;;;;;5022262;28;20609;-74
2023/07/15 07:46:47;;;;;;;4.80;0.97;;;27.90;51.00;;;;;;5015393;28;20176;-74
2023/07/15 07:49:13;;;;;;;1.77;0.90;;;27.70;51.50;;;;;;5049594;28;20628;-74
2023/07/15 07:51:39;;;;;;;3.53;1.13;;;27.60;51.60;;;;;;5050133;28;20644;-74
2023/07/15 07:54:05;;;;;;;3.60;1.00;;;27.50;52.10;;;;;;5032066;28;20607;-74
2023/07/15 07:56:31;;;;;;;3.00;1.30;;;27.30;52.70;;;;;;5050274;28;20659;-74
2023/07/15 07:58:58;;;;;;;1.73;0.83;;;27.20;53.10;;;;;;5052440;28;20198;-75
2023/07/15 08:01:25;;;;;;;4.60;1.10;;;27.20;53.20;;;;;;5030672;28;20189;-75
2023/07/15 08:03:50;;;;;;;4.43;0.90;;;27.20;53.70;;;;;;5048087;28;21162;-74
2023/07/15 08:06:17;;;;;;;2.10;1.00;;;27.20;53.70;;;;;;5031507;28;20588;-74
2023/07/15 08:08:43;;;;;;;3.40;0.93;;;27.20;53.70;;;;;;5050163;28;20263;-74
2023/07/15 08:11:08;;;;;;;2.00;1.10;;;27.10;54.00;;;;;;5031015;28;20702;-74
2023/07/15 08:13:34;;;;;;;1.90;0.97;;;27.10;54.20;;;;;;5050132;28;20195;-74
2023/07/15 08:16:00;;;;;;;2.90;1.03;;;27.00;54.70;;;;;;5049796;28;20173;-74
2023/07/15 08:18:26;;;;;;;1.97;1.00;;;27.00;55.00;;;;;;5031679;28;20196;-74
2023/07/15 08:20:52;;;;;;;6.80;1.40;;;26.80;55.60;;;;;;5039007;28;20577;-74
2023/07/15 08:23:20;;;;;;;4.37;1.40;;;26.60;56.30;;;;;;5012233;28;20185;-74
2023/07/15 08:25:46;;;;;;;2.93;1.00;;;26.30;56.90;;;;;;5029750;28;20177;-74
2023/07/15 08:28:12;;;;;;;3.40;1.20;;;26.10;58.00;;;;;;5011832;28;20589;-74
2023/07/15 08:30:37;;;;;;;2.30;1.07;;;25.80;58.90;;;;;;5011852;28;21166;-74
2023/07/15 08:33:04;;;;;;;2.47;1.00;;;25.50;59.60;;;;;;5032521;28;20669;-74
2023/07/15 08:35:32;;;;;;;1.83;1.10;;;25.30;60.60;;;;;;5037458;28;20174;-74
2023/07/15 08:37:57;;;;;;;2.43;1.23;;;25.10;62.00;;;;;;5033036;28;20636;-74
2023/07/15 08:40:25;;;;;;;1.90;0.93;;;24.80;63.30;;;;;;4999363;28;21217;-74
2023/07/15 08:42:51;;;;;;;2.10;1.00;;;24.60;65.00;;;;;;5013936;28;20331;-74
2023/07/15 08:45:22;;;;;;;5.30;1.30;;;24.30;67.30;;;;;;5027461;28;20585;-74
2023/07/15 08:47:49;;;;;;;2.27;1.13;;;24.10;69.90;;;;;;5026120;28;20921;-74
2023/07/15 08:50:17;;;;;;;2.03;1.23;;;23.90;71.10;;;;;;5044898;28;21036;-74
2023/07/15 08:52:44;;;;;;;5.43;1.30;;;23.60;73.30;;;;;;5052749;28;20627;-74
2023/07/15 08:55:11;;;;;;;4.90;1.57;;;23.30;75.60;;;;;;5035435;28;20575;-73
2023/07/15 08:57:37;;;;;;;2.73;1.30;;;23.10;78.30;;;;;;5034742;28;20785;-73
2023/07/15 09:00:07;;;;;;;4.10;1.80;;;22.90;81.70;;;;;;5053529;28;20671;-73
2023/07/15 09:02:37;;;;;;;3.90;1.50;;;22.80;85.60;;;;;;5034657;28;20631;-73
2023/07/15 09:05:05;;;;;;;2.23;1.50;;;22.70;87.50;;;;;;5019006;28;20633;-73
2023/07/15 09:07:31;;;;;;;2.07;1.10;;;22.50;90.60;;;;;;5002147;28;20633;-73
2023/07/15 09:10:04;;;;;;;2.27;1.30;;;22.40;91.90;;;;;;5052319;28;20607;-73
2023/07/15 09:12:30;;;;;;;2.83;1.30;;;22.30;94.40;;;;;;5044705;28;20209;-73
2023/07/15 09:14:57;;;;;;;3.23;1.53;;;22.20;94.30;;;;;;5040988;28;20663;-73
2023/07/15 09:17:26;;;;;;;3.10;1.60;;;22.20;96.10;;;;;;5032381;28;20209;-74
2023/07/15 09:19:52;;;;;;;1.97;1.33;;;22.10;97.70;;;;;;5032744;28;20580;-73
2023/07/15 09:22:18;;;;;;;3.73;2.03;;;22.00;99.40;;;;;;5032695;28;20663;-73
2023/07/15 09:24:44;;;;;;;2.13;1.40;;;21.90;99.90;;;;;;5015024;28;20300;-73
2023/07/15 09:27:10;;;;;;;3.50;1.43;;;21.80;99.90;;;;;;5014732;28;21142;-73
2023/07/15 09:29:36;;;;;;;3.77;1.47;;;21.70;99.90;;;;;;5032599;28;20170;-73
2023/07/15 09:32:01;;;;;;;3.60;1.30;;;21.70;99.90;;;;;;5032528;28;21147;-74
2023/07/15 09:34:27;;;;;;;2.20;1.40;;;21.60;99.90;;;;;;5032879;28;20181;-73
2023/07/15 09:36:54;;;;;;;3.80;1.40;;;21.50;99.90;;;;;;5032171;28;20198;-74
2023/07/15 09:39:22;;;;;;;4.93;1.80;;;21.50;99.90;;;;;;5013997;28;20214;-74
2023/07/15 09:42:06;;;;;;;3.20;1.83;;;21.40;99.90;;;;;;5040229;28;20628;-74
2023/07/15 09:44:45;;;;;;;2.40;1.40;;;21.30;99.90;;;;;;5033153;28;20656;-74
2023/07/15 09:47:11;;;;;;;3.70;1.47;;;21.30;99.90;;;;;;5021144;28;20603;-74
2023/07/15 09:49:37;;;;;;;2.60;1.30;;;21.30;99.90;;;;;;5032067;28;21150;-73
2023/07/15 09:52:06;;;;;;;3.40;1.70;;;21.40;99.90;;;;;;5025694;28;20201;-74
2023/07/15 09:54:33;;;;;;;6.60;1.80;;;21.40;99.90;;;;;;5034542;28;20591;-74
2023/07/15 09:57:08;;;;;;;3.30;1.60;;;21.40;99.90;;;;;;5038815;28;20690;-74
2023/07/15 09:59:48;;;;;;;2.37;1.70;;;21.40;99.90;;;;;;5052042;28;20673;-74
2023/07/15 10:02:30;;;;;;;4.00;1.80;;;21.40;99.90;;;;;;5038412;28;20643;-74
2023/07/15 10:05:04;;;;;;;3.13;1.77;;;21.50;99.90;;;;;;5046816;28;20575;-74
2023/07/15 10:07:30;;;;;;;4.30;2.00;;;21.50;99.90;;;;;;5031347;28;20579;-73
2023/07/15 10:09:59;;;;;;;3.53;1.50;;;21.60;99.90;;;;;;5028571;28;20626;-73
2023/07/15 10:12:29;;;;;;;2.77;1.80;;;21.60;99.90;;;;;;5032825;28;20620;-73
2023/07/15 10:14:56;;;;;;;3.40;1.67;;;21.60;99.90;;;;;;5014056;28;20564;-73
2023/07/15 10:17:22;;;;;;;3.73;2.20;;;21.60;99.90;;;;;;5013372;28;20636;-73
2023/07/15 10:19:48;;;;;;;5.57;2.17;;;21.60;99.90;;;;;;5014007;28;20996;-73
2023/07/15 10:22:21;;;;;;;5.97;2.20;;;21.60;99.90;;;;;;5031200;28;20504;-73
2023/07/15 10:24:56;;;;;;;7.23;2.33;;;21.60;99.90;;;;;;5001815;28;20576;-76
2023/07/15 10:27:25;;;;;;;5.63;2.40;;;21.60;99.90;;;;;;5014805;28;20683;-75
2023/07/15 10:30:18;;;;;;;3.90;2.10;;;21.60;99.90;;;;;;5023829;28;20595;-76
2023/07/15 10:33:03;;;;;;;2.70;2.10;;;21.60;99.90;;;;;;5031669;28;20657;-76
2023/07/15 10:35:31;;;;;;;4.00;2.20;;;21.60;99.90;;;;;;5050303;28;20574;-76
2023/07/15 10:38:19;;;;;;;2.20;1.80;;;21.60;99.90;;;;;;5050851;28;20638;-75
2023/07/15 10:41:10;;;;;;;3.80;1.83;;;21.60;99.90;;;;;;5038195;28;20587;-75
2023/07/15 10:43:38;;;;;;;3.00;1.70;;;21.70;99.90;;;;;;5032865;28;20579;-76
2023/07/15 10:46:09;;;;;;;2.67;2.10;;;21.70;99.90;;;;;;5033363;28;20600;-76
2023/07/15 10:48:35;;;;;;;2.03;1.53;;;21.70;99.90;;;;;;5041931;28;20583;-76
2023/07/15 10:51:06;;;;;;;2.60;1.77;;;21.80;99.90;;;;;;5025152;28;20673;-77
2023/07/15 10:53:33;;;;;;;3.40;1.83;;;21.80;99.90;;;;;;5033393;28;21423;-76
2023/07/15 10:56:10;;;;;;;3.40;2.13;;;21.80;99.90;;;;;;5032734;28;20610;-76
2023/07/15 10:58:36;;;;;;;4.70;3.67;;;21.90;99.90;;;;;;5032495;28;20587;-76
2023/07/15 11:01:06;;;;;;;4.43;3.03;;;21.90;99.90;;;;;;5031082;28;20722;-76
2023/07/15 11:03:34;;;;;;;5.43;2.77;;;21.90;99.90;;;;;;5021571;28;20617;-76
2023/07/15 11:06:03;;;;;;;5.03;3.10;;;22.00;99.90;;;;;;5030829;28;20576;-77
2023/07/15 11:08:30;;;;;;;6.00;4.17;;;22.10;99.90;;;;;;5030308;28;20986;-77
2023/07/15 11:11:00;;;;;;;4.80;4.07;;;22.20;99.90;;;;;;5013178;28;20628;-77
2023/07/15 11:13:27;;;;;;;4.47;3.57;;;22.40;99.90;;;;;;5012675;28;20592;-77
2023/07/15 11:15:54;;;;;;;4.13;3.33;;;22.50;99.90;;;;;;5030552;28;20581;-77
2023/07/15 11:18:23;;;;;;;4.67;3.57;;;22.60;99.90;;;;;;5028924;28;20650;-77
2023/07/15 11:20:51;;;;;;;4.00;3.33;;;22.70;99.90;;;;;;5012659;28;20589;-77
2023/07/15 11:23:18;;;;;;;3.47;2.60;;;22.80;99.90;;;;;;5012968;28;20589;-77
2023/07/15 11:25:44;;;;;;;4.27;2.73;;;22.90;99.90;;;;;;5030418;28;20579;-77
2023/07/15 11:28:10;;;;;;;4.30;2.90;;;23.00;99.90;;;;;;5012150;28;20678;-76
2023/07/15 11:30:41;;;;;;;3.93;2.83;;;23.10;99.90;;;;;;5012902;28;20618;-77
2023/07/15 11:33:08;;;;;;;4.70;2.20;;;23.20;99.90;;;;;;4995856;28;20588;-77
2023/07/15 11:35:35;;;;;;;3.40;2.70;;;23.20;99.90;;;;;;5038753;28;20606;-77
2023/07/15 11:38:07;;;;;;;4.17;2.30;;;23.30;99.90;;;;;;5049462;28;20638;-78
2023/07/15 11:40:37;;;;;;;4.20;2.73;;;23.30;99.90;;;;;;5050312;28;20588;-78
2023/07/15 11:43:06;;;;;;;5.57;2.33;;;23.50;99.90;;;;;;5049690;28;20706;-77
2023/07/15 11:45:35;;;;;;;4.07;2.03;;;23.50;99.90;;;;;;5050308;28;20610;-77
2023/07/15 11:48:01;;;;;;;2.80;1.90;;;23.60;99.90;;;;;;5031450;28;20650;-75
2023/07/15 11:50:27;;;;;;;2.63;1.80;;;23.80;99.90;;;;;;5050430;28;21135;-75
2023/07/15 11:52:55;;;;;;;3.33;1.70;;;24.00;99.90;;;;;;5015428;28;20192;-75
2023/07/15 11:55:27;;;;;;;3.07;2.00;;;24.20;99.90;;;;;;5031946;28;20622;-75
2023/07/15 11:57:53;;;;;;;2.83;1.70;;;24.50;99.90;;;;;;5031479;28;20674;-75
2023/07/15 12:00:34;;;;;;;6.80;2.97;;;24.70;99.90;;;;;;5050066;28;20609;-74
2023/07/15 12:03:10;;;;;;;3.67;1.93;;;24.80;99.90;;;;;;5049394;28;20682;-74
2023/07/15 12:05:38;;;;;;;4.57;2.93;;;24.90;99.90;;;;;;5032270;28;20579;-74
2023/07/15 12:08:12;;;;;;;2.73;2.00;;;25.00;99.90;;;;;;5052250;28;20598;-74
2023/07/15 12:10:51;;;;;;;4.97;2.30;;;25.00;99.90;;;;;;5036119;28;20678;-75
2023/07/15 12:13:17;;;;;;;3.93;2.20;;;25.00;99.90;;;;;;5037149;28;20648;-75
2023/07/15 12:15:42;;;;;;;5.27;3.10;;;25.00;99.90;;;;;;5038652;28;20595;-74
2023/07/15 12:18:08;;;;;;;3.00;2.50;;;25.00;99.90;;;;;;5053533;28;20242;-74
2023/07/15 12:20:34;;;;;;;4.23;2.10;;;25.10;99.90;;;;;;5019474;28;20619;-75
2023/07/15 12:22:59;;;;;;;2.47;2.00;;;25.20;99.90;;;;;;5053793;28;20196;-75
2023/07/15 12:25:25;;;;;;;2.70;2.40;;;25.20;99.90;;;;;;5035099;28;20173;-77
2023/07/15 12:27:51;;;;;;;3.30;1.73;;;25.20;99.90;;;;;;5018970;28;20223;-77
2023/07/15 12:30:17;;;;;;;3.47;2.50;;;25.20;99.90;;;;;;5019116;28;20611;-78
2023/07/15 12:32:43;;;;;;;4.50;2.03;;;25.30;99.90;;;;;;5035517;28;20263;-77
2023/07/15 12:35:09;;;;;;;2.70;2.27;;;25.40;99.90;;;;;;5053474;28;21178;-78
2023/07/15 12:37:35;;;;;;;6.10;2.27;;;25.50;99.90;;;;;;5035313;28;20212;-79
2023/07/15 12:40:03;;;;;;;5.70;1.93;;;25.50;99.90;;;;;;5002305;28;20205;-79
2023/07/15 12:42:30;;;;;;;2.80;1.80;;;25.50;99.90;;;;;;5018814;28;20607;-78
2023/07/15 12:44:56;;;;;;;4.20;2.40;;;25.60;99.90;;;;;;5019379;28;20679;-78
2023/07/15 12:47:21;;;;;;;3.17;2.00;;;25.70;99.90;;;;;;5035052;28;20697;-78
2023/07/15 12:49:47;;;;;;;4.73;2.70;;;25.70;99.90;;;;;;5037660;28;20177;-79